Time;durP1;ratioP1;P1;durP2;ratioP2;P2;SDS_P1;SDS_P2;PMS_P1;PMS_P2;Temp;Humidity;BMP_temperature;BMP_pressure;BME280_temperature;BME280_humidity;BME280_pressure;Samples;Min_cycle;Max_cycle;Signal;HPM_P1;HPM_P2
2022/12/19 00:00:04;;;;;;;4.22;2.85;;;1.30;99.90;;;;;;5056375;28;20693;-77
2022/12/19 00:02:32;;;;;;;11.60;5.85;;;1.30;99.90;;;;;;5052156;28;20296;-77
2022/12/19 00:04:59;;;;;;;5.30;3.30;;;1.40;99.90;;;;;;5053377;28;20227;-78
2022/12/19 00:07:27;;;;;;;14.27;5.15;;;1.40;99.90;;;;;;5054686;28;20281;-77
2022/12/19 00:09:54;;;;;;;8.85;5.68;;;1.50;99.90;;;;;;5056739;28;20617;-77
2022/12/19 00:12:23;;;;;;;13.20;5.40;;;1.50;99.90;;;;;;5057987;28;20256;-77
2022/12/19 00:14:50;;;;;;;6.82;3.58;;;1.50;99.90;;;;;;5056975;28;20217;-77
2022/12/19 00:17:17;;;;;;;3.75;2.25;;;1.50;99.90;;;;;;5064426;28;20222;-78
2022/12/19 00:19:43;;;;;;;11.15;3.90;;;1.50;99.90;;;;;;5058422;28;20312;-79
2022/12/19 00:22:10;;;;;;;11.13;7.00;;;1.50;99.90;;;;;;5057435;28;20214;-79
2022/12/19 00:24:38;;;;;;;9.52;5.85;;;1.60;99.90;;;;;;5055948;28;20675;-78
2022/12/19 00:27:05;;;;;;;8.20;5.47;;;1.50;99.90;;;;;;5056842;28;20198;-78
2022/12/19 00:29:32;;;;;;;7.40;5.28;;;1.60;99.90;;;;;;5051769;28;20652;-78
2022/12/19 00:31:59;;;;;;;15.73;8.60;;;1.60;99.90;;;;;;5056625;28;20236;-78
2022/12/19 00:34:26;;;;;;;8.98;7.70;;;1.60;99.90;;;;;;5064282;28;20297;-79
2022/12/19 00:36:53;;;;;;;6.78;5.03;;;1.60;99.90;;;;;;5060836;28;20208;-78
2022/12/19 00:39:19;;;;;;;6.72;6.07;;;1.60;99.90;;;;;;5054955;28;20233;-78
2022/12/19 00:41:48;;;;;;;13.93;8.45;;;1.60;99.90;;;;;;5056273;28;20320;-78
2022/12/19 00:44:14;;;;;;;8.15;5.45;;;1.70;99.90;;;;;;5055546;28;20564;-78
2022/12/19 00:46:42;;;;;;;10.50;6.18;;;1.70;99.90;;;;;;5058850;28;20262;-78
2022/12/19 00:49:09;;;;;;;2.67;2.38;;;1.70;99.90;;;;;;5066044;28;20722;-78
2022/12/19 00:51:37;;;;;;;2.55;2.08;;;1.80;99.90;;;;;;5056001;28;20230;-79
2022/12/19 00:54:05;;;;;;;8.77;4.03;;;1.90;99.90;;;;;;5054332;28;20221;-79
2022/12/19 00:56:33;;;;;;;8.57;6.28;;;1.90;99.90;;;;;;5056269;28;20201;-79
2022/12/19 00:59:01;;;;;;;7.28;4.65;;;1.90;99.90;;;;;;5056436;28;20693;-78
2022/12/19 01:01:30;;;;;;;12.13;4.38;;;2.00;99.90;;;;;;5054465;28;20639;-78
2022/12/19 01:03:58;;;;;;;5.13;2.55;;;2.00;99.90;;;;;;5053495;28;20191;-79
2022/12/19 01:06:25;;;;;;;7.47;6.00;;;2.10;99.90;;;;;;5054008;28;20230;-79
2022/12/19 01:08:52;;;;;;;13.43;7.38;;;2.20;99.90;;;;;;5055239;28;20197;-78
2022/12/19 01:12:44;;;;;;;6.18;3.85;;;2.20;99.90;;;;;;5054421;28;20225;-77
2022/12/19 01:14:08;;;;;;;18.50;4.75;;;2.20;99.90;;;;;;5035646;28;20225;-79
2022/12/19 01:16:35;;;;;;;6.57;5.22;;;2.30;99.90;;;;;;5040843;28;20199;-78
2022/12/19 01:19:01;;;;;;;1.08;1.08;;;2.30;99.90;;;;;;5061896;28;20284;-79
2022/12/19 01:21:28;;;;;;;16.05;9.32;;;2.30;99.90;;;;;;5054451;28;20218;-78
2022/12/19 01:23:55;;;;;;;15.93;8.13;;;2.30;99.90;;;;;;5052859;28;20197;-78
2022/12/19 01:26:22;;;;;;;7.60;6.47;;;2.30;99.90;;;;;;5053870;28;20208;-79
2022/12/19 01:28:49;;;;;;;5.30;4.82;;;2.30;99.90;;;;;;5053527;28;20201;-78
2022/12/19 01:31:17;;;;;;;12.43;6.93;;;2.30;99.90;;;;;;5054135;28;20661;-77
2022/12/19 01:33:44;;;;;;;12.43;6.78;;;2.30;99.90;;;;;;5053341;28;20213;-77
2022/12/19 01:36:11;;;;;;;13.93;8.15;;;2.30;99.90;;;;;;5053546;28;20251;-79
2022/12/19 01:38:37;;;;;;;9.50;3.90;;;2.30;99.90;;;;;;5054375;28;20217;-78
2022/12/19 01:41:05;;;;;;;14.95;7.20;;;2.40;99.90;;;;;;5054742;28;20217;-79
2022/12/19 01:43:34;;;;;;;7.93;6.43;;;2.40;99.90;;;;;;5054143;28;20273;-79
2022/12/19 01:46:04;;;;;;;5.25;4.43;;;2.40;99.90;;;;;;5053046;28;20212;-78
2022/12/19 01:48:35;;;;;;;5.57;5.20;;;2.40;99.90;;;;;;5054240;28;20196;-78
2022/12/19 01:51:04;;;;;;;3.63;3.25;;;2.40;99.90;;;;;;5073447;28;20239;-79
2022/12/19 01:53:36;;;;;;;14.95;5.45;;;2.40;99.90;;;;;;5046439;28;20216;-78
2022/12/19 01:56:06;;;;;;;20.23;5.18;;;2.40;99.90;;;;;;5034166;28;20377;-78
2022/12/19 01:58:34;;;;;;;16.75;3.17;;;2.40;99.90;;;;;;5052612;28;20277;-78
2022/12/19 02:01:01;;;;;;;3.67;3.38;;;2.40;99.90;;;;;;5051696;28;20246;-77
2022/12/19 02:03:29;;;;;;;9.38;4.95;;;2.50;99.90;;;;;;5052924;28;20193;-77
2022/12/19 02:05:59;;;;;;;0.82;0.70;;;2.50;99.90;;;;;;5052013;28;20203;-79
2022/12/19 02:08:27;;;;;;;6.28;4.88;;;2.60;99.90;;;;;;5052294;28;20198;-79
2022/12/19 02:10:54;;;;;;;15.00;5.70;;;2.60;99.90;;;;;;5032670;28;20219;-78
2022/12/19 02:13:22;;;;;;;4.60;3.28;;;2.70;99.90;;;;;;5049082;28;20646;-78
2022/12/19 02:15:52;;;;;;;7.75;5.18;;;2.70;99.90;;;;;;5051868;28;20198;-78
2022/12/19 02:18:29;;;;;;;13.88;7.95;;;2.80;99.90;;;;;;5060160;28;20579;-78
2022/12/19 02:21:18;;;;;;;8.98;4.35;;;2.80;99.90;;;;;;5032807;28;20225;-79
2022/12/19 02:24:27;;;;;;;6.63;4.50;;;2.90;99.90;;;;;;5051629;28;20220;-78
2022/12/19 02:27:24;;;;;;;10.90;6.32;;;2.90;99.90;;;;;;5052618;28;20702;-78
2022/12/19 02:30:09;;;;;;;9.43;3.72;;;3.00;99.90;;;;;;5052543;28;20197;-78
2022/12/19 02:32:47;;;;;;;5.15;3.78;;;3.10;99.90;;;;;;5052757;28;20673;-79
2022/12/19 02:35:23;;;;;;;8.60;6.60;;;3.20;99.90;;;;;;5051977;28;20293;-78
2022/12/19 02:37:56;;;;;;;5.82;3.50;;;3.20;99.90;;;;;;5051813;28;20298;-78
2022/12/19 02:40:28;;;;;;;3.90;3.53;;;3.20;99.90;;;;;;5044074;28;20211;-79
2022/12/19 02:43:00;;;;;;;8.68;7.35;;;3.20;99.90;;;;;;5051833;28;20225;-79
2022/12/19 02:45:31;;;;;;;7.88;3.40;;;3.30;99.90;;;;;;5052261;28;20613;-79
2022/12/19 02:48:02;;;;;;;8.02;4.15;;;3.40;99.90;;;;;;5053159;28;20212;-79
2022/12/19 02:50:37;;;;;;;5.30;3.78;;;3.50;99.90;;;;;;5052578;28;20191;-79
2022/12/19 02:53:03;;;;;;;8.98;6.00;;;3.50;99.90;;;;;;5052030;28;20279;-79
2022/12/19 02:55:35;;;;;;;3.28;3.08;;;3.60;99.90;;;;;;5051662;28;20723;-79
2022/12/19 02:58:29;;;;;;;3.90;2.33;;;3.60;99.90;;;;;;5052414;28;20262;-80
2022/12/19 03:01:03;;;;;;;9.02;3.80;;;3.70;99.90;;;;;;5030856;28;20217;-78
2022/12/19 03:03:42;;;;;;;3.15;1.73;;;3.70;99.90;;;;;;5052288;28;20649;-78
2022/12/19 03:06:17;;;;;;;2.88;2.67;;;3.80;99.90;;;;;;5052198;28;20198;-79
2022/12/19 03:08:51;;;;;;;3.17;2.58;;;3.90;99.90;;;;;;5032356;28;20205;-79
2022/12/19 03:11:18;;;;;;;12.18;6.63;;;3.90;99.90;;;;;;5047869;28;20222;-77
2022/12/19 03:13:49;;;;;;;7.65;4.50;;;3.90;99.90;;;;;;5052346;28;20281;-79
2022/12/19 03:16:16;;;;;;;3.10;1.88;;;3.90;99.90;;;;;;5052751;28;20238;-79
2022/12/19 03:18:45;;;;;;;5.70;5.00;;;3.90;99.90;;;;;;5052260;28;20282;-79
2022/12/19 03:21:20;;;;;;;1.90;1.80;;;3.90;99.90;;;;;;5052548;28;20282;-79
2022/12/19 03:23:48;;;;;;;6.90;5.53;;;4.00;99.90;;;;;;5052136;28;20277;-77
2022/12/19 03:26:18;;;;;;;9.00;5.63;;;4.00;99.90;;;;;;5052028;28;20576;-79
2022/12/19 03:28:51;;;;;;;2.13;1.92;;;4.00;99.90;;;;;;5052704;28;20194;-79
2022/12/19 03:31:22;;;;;;;10.80;5.50;;;4.00;99.90;;;;;;5052651;28;20229;-77
2022/12/19 03:33:55;;;;;;;11.85;5.65;;;4.00;99.90;;;;;;5051340;28;20187;-79
2022/12/19 03:36:29;;;;;;;6.85;6.00;;;3.90;99.90;;;;;;5052991;28;20197;-79
2022/12/19 03:38:57;;;;;;;20.00;6.40;;;3.90;99.90;;;;;;5048771;28;20197;-79
2022/12/19 03:44:08;;;;;;;4.82;3.22;;;3.80;99.90;;;;;;5044924;28;20253;-79
2022/12/19 03:46:38;;;;;;;5.50;4.78;;;3.80;99.90;;;;;;5056214;28;20193;-79
2022/12/19 03:49:09;;;;;;;8.98;4.30;;;3.80;99.90;;;;;;5053625;28;20282;-78
2022/12/19 03:51:46;;;;;;;13.38;8.40;;;3.80;99.90;;;;;;5055629;28;20218;-79
2022/12/19 03:54:16;;;;;;;9.70;6.30;;;3.80;99.90;;;;;;5054888;28;20213;-77
2022/12/19 03:56:50;;;;;;;5.70;2.90;;;3.70;99.90;;;;;;5056415;28;20186;-79
2022/12/19 03:59:22;;;;;;;7.30;5.43;;;3.70;99.90;;;;;;5042413;28;20195;-79
2022/12/19 04:01:51;;;;;;;3.55;2.15;;;3.70;99.90;;;;;;5037198;28;20235;-79
2022/12/19 04:04:21;;;;;;;9.18;5.82;;;3.70;99.90;;;;;;5036040;28;20188;-79
2022/12/19 04:06:49;;;;;;;4.65;2.15;;;3.70;99.90;;;;;;5043138;28;20288;-79
2022/12/19 04:09:17;;;;;;;8.57;3.30;;;3.70;99.90;;;;;;5055583;28;20560;-79
2022/12/19 04:11:50;;;;;;;8.50;5.50;;;3.80;99.90;;;;;;5048809;28;20256;-79
2022/12/19 04:14:22;;;;;;;9.80;6.22;;;3.70;99.90;;;;;;5033693;28;20290;-80
2022/12/19 04:16:55;;;;;;;8.10;4.70;;;3.80;99.90;;;;;;5043508;28;20540;-79
2022/12/19 04:19:30;;;;;;;3.33;3.08;;;3.90;99.90;;;;;;5055396;28;20194;-79
2022/12/19 04:22:02;;;;;;;10.18;6.05;;;3.80;99.90;;;;;;5044114;28;20209;-80
2022/12/19 04:24:34;;;;;;;12.32;7.07;;;3.80;99.90;;;;;;5052054;28;20193;-78
2022/12/19 04:27:03;;;;;;;6.90;4.45;;;3.80;99.90;;;;;;5054191;28;20187;-78
2022/12/19 04:29:32;;;;;;;4.50;1.90;;;3.80;99.90;;;;;;5052964;28;20198;-76
2022/12/19 04:32:02;;;;;;;6.57;3.45;;;3.80;99.90;;;;;;5052573;28;20206;-79
2022/12/19 04:34:30;;;;;;;16.25;7.80;;;3.80;99.90;;;;;;5052706;28;20215;-77
2022/12/19 04:36:57;;;;;;;14.05;7.03;;;3.80;99.90;;;;;;5048527;28;20190;-80
2022/12/19 04:39:24;;;;;;;7.22;5.85;;;3.80;99.90;;;;;;5055871;28;20546;-81
2022/12/19 04:41:51;;;;;;;2.88;1.77;;;3.80;99.90;;;;;;5052365;28;20272;-78
2022/12/19 04:44:17;;;;;;;4.22;2.50;;;3.80;99.90;;;;;;5053044;28;20222;-79
2022/12/19 04:46:44;;;;;;;10.38;6.90;;;3.90;99.90;;;;;;5043537;28;20285;-79
2022/12/19 04:49:11;;;;;;;4.85;3.95;;;3.90;99.90;;;;;;5060972;28;20229;-78
2022/12/19 04:51:39;;;;;;;7.28;5.70;;;3.90;99.90;;;;;;5044421;28;20226;-79
2022/12/19 04:54:07;;;;;;;13.10;8.18;;;3.90;99.90;;;;;;5057795;28;20281;-80
2022/12/19 04:56:34;;;;;;;19.10;8.90;;;4.00;99.90;;;;;;5036367;28;20222;-80
2022/12/19 04:59:01;;;;;;;17.27;7.85;;;4.00;99.90;;;;;;5034656;28;20287;-80
2022/12/19 05:01:28;;;;;;;14.45;5.43;;;4.00;99.90;;;;;;5050842;28;20218;-79
2022/12/19 05:03:55;;;;;;;2.65;2.47;;;4.10;99.90;;;;;;5053817;28;20254;-80
2022/12/19 05:06:22;;;;;;;10.95;6.30;;;4.10;99.90;;;;;;5049954;28;20194;-79
2022/12/19 05:08:50;;;;;;;11.52;6.20;;;4.10;99.90;;;;;;5057281;28;20281;-80
2022/12/19 05:11:17;;;;;;;7.68;3.35;;;4.10;99.90;;;;;;5059085;28;20213;-79
2022/12/19 05:13:44;;;;;;;16.90;8.70;;;4.20;99.90;;;;;;5050464;28;20282;-78
2022/12/19 05:16:12;;;;;;;3.72;3.40;;;4.20;99.90;;;;;;5047690;28;20296;-77
2022/12/19 05:18:39;;;;;;;15.85;7.75;;;4.20;99.90;;;;;;5054009;28;20187;-78
2022/12/19 05:21:06;;;;;;;16.55;6.28;;;4.20;99.90;;;;;;5051124;28;20222;-79
2022/12/19 05:23:34;;;;;;;7.40;5.40;;;4.20;99.90;;;;;;5054487;28;20648;-78
2022/12/19 05:26:04;;;;;;;14.48;6.97;;;4.20;99.90;;;;;;5038141;28;20190;-78
2022/12/19 05:28:32;;;;;;;13.38;7.68;;;4.20;99.90;;;;;;5033329;28;20285;-77
2022/12/19 05:31:06;;;;;;;6.30;4.60;;;4.20;99.90;;;;;;5053785;28;20246;-79
2022/12/19 05:33:34;;;;;;;17.25;6.95;;;4.20;99.90;;;;;;5068654;28;20224;-79
2022/12/19 05:36:01;;;;;;;5.38;4.15;;;4.20;99.90;;;;;;5062587;28;20282;-78
2022/12/19 05:38:28;;;;;;;33.72;9.73;;;4.20;99.90;;;;;;5062459;28;20725;-79
2022/12/19 05:40:55;;;;;;;12.48;6.28;;;4.20;99.90;;;;;;5063812;28;20232;-79
2022/12/19 05:43:24;;;;;;;3.42;3.13;;;4.20;99.90;;;;;;5056695;28;20278;-77
2022/12/19 05:45:51;;;;;;;15.15;9.00;;;4.20;99.90;;;;;;5059925;28;20183;-80
2022/12/19 05:48:17;;;;;;;6.72;3.88;;;4.20;99.90;;;;;;5059110;28;20277;-79
2022/12/19 05:50:48;;;;;;;9.60;3.95;;;4.30;99.90;;;;;;5048799;28;20233;-79
2022/12/19 05:53:16;;;;;;;7.03;2.47;;;4.30;99.90;;;;;;5053525;28;20195;-79
2022/12/19 05:55:42;;;;;;;5.10;2.20;;;4.30;99.90;;;;;;5053232;28;20219;-79
2022/12/19 05:58:09;;;;;;;17.02;11.07;;;4.30;99.90;;;;;;5051152;28;20222;-79
2022/12/19 06:00:38;;;;;;;3.65;3.35;;;4.30;99.90;;;;;;5053623;28;20743;-79
2022/12/19 06:03:04;;;;;;;7.85;6.00;;;4.30;99.90;;;;;;5051898;28;20194;-79
2022/12/19 06:05:31;;;;;;;12.43;6.75;;;4.30;99.90;;;;;;5050798;28;20221;-78
2022/12/19 06:07:58;;;;;;;2.60;2.33;;;4.30;99.90;;;;;;5052160;28;20279;-78
2022/12/19 06:10:25;;;;;;;24.20;12.23;;;4.40;99.90;;;;;;5055965;28;20218;-78
2022/12/19 06:12:52;;;;;;;19.42;9.65;;;4.40;99.90;;;;;;5049553;28;20210;-78
2022/12/19 06:15:19;;;;;;;9.40;6.95;;;4.50;99.90;;;;;;5049629;28;20297;-78
2022/12/19 06:17:47;;;;;;;10.27;4.38;;;4.50;99.90;;;;;;5050051;28;20183;-77
2022/12/19 06:20:14;;;;;;;9.10;7.85;;;4.60;99.90;;;;;;5032620;28;20206;-78
2022/12/19 06:22:41;;;;;;;9.20;8.10;;;4.60;99.90;;;;;;5040362;28;20241;-78
2022/12/19 06:25:09;;;;;;;10.40;5.43;;;4.60;99.90;;;;;;5032968;28;20747;-78
2022/12/19 06:27:36;;;;;;;22.30;9.15;;;4.60;99.90;;;;;;5046600;28;20198;-78
2022/12/19 06:30:03;;;;;;;9.68;4.00;;;4.70;99.90;;;;;;5052081;28;20241;-78
2022/12/19 06:32:29;;;;;;;15.57;8.98;;;4.70;99.90;;;;;;5049537;28;20294;-78
2022/12/19 06:34:57;;;;;;;8.60;5.88;;;4.80;99.90;;;;;;5030926;28;20286;-77
2022/12/19 06:37:24;;;;;;;6.40;4.10;;;4.80;99.90;;;;;;5043009;28;20670;-78
2022/12/19 06:39:51;;;;;;;9.60;5.80;;;4.90;99.90;;;;;;5051791;28;20286;-79
2022/12/19 06:42:22;;;;;;;8.88;3.85;;;4.90;99.90;;;;;;5052025;28;20213;-79
2022/12/19 06:44:50;;;;;;;13.38;8.00;;;5.00;99.90;;;;;;5051217;28;20206;-79
2022/12/19 06:47:17;;;;;;;7.35;4.65;;;5.00;99.90;;;;;;5048477;28;20744;-79
2022/12/19 06:49:47;;;;;;;15.65;5.88;;;5.10;99.90;;;;;;5051577;28;20280;-79
2022/12/19 06:52:15;;;;;;;11.02;6.00;;;5.10;99.90;;;;;;5043580;28;20262;-80
2022/12/19 06:54:42;;;;;;;11.52;6.15;;;5.10;99.90;;;;;;5051375;28;20698;-78
2022/12/19 06:57:09;;;;;;;1.00;0.90;;;5.20;99.90;;;;;;5052016;28;20209;-79
2022/12/19 06:59:36;;;;;;;1.45;1.38;;;5.20;99.90;;;;;;5051018;28;20905;-78
2022/12/19 07:02:24;;;;;;;8.32;5.07;;;5.20;99.90;;;;;;5050130;28;20576;-79
2022/12/19 07:04:55;;;;;;;4.43;3.13;;;5.20;99.90;;;;;;5051348;28;20191;-79
2022/12/19 07:07:23;;;;;;;12.88;9.45;;;5.20;99.90;;;;;;5044519;28;20270;-77
2022/12/19 07:09:50;;;;;;;13.15;7.45;;;5.20;99.90;;;;;;5047065;28;20208;-79
2022/12/19 07:12:17;;;;;;;8.70;7.65;;;5.20;99.90;;;;;;5051778;28;20217;-80
2022/12/19 07:14:44;;;;;;;7.47;4.78;;;5.30;99.90;;;;;;5056312;28;20194;-80
2022/12/19 07:17:12;;;;;;;10.57;7.57;;;5.20;99.90;;;;;;5048378;28;20301;-80
2022/12/19 07:19:39;;;;;;;7.18;4.28;;;5.20;99.90;;;;;;5047122;28;20202;-79
2022/12/19 07:22:07;;;;;;;6.38;4.03;;;5.30;99.90;;;;;;5055427;28;20206;-79
2022/12/19 07:24:36;;;;;;;8.80;4.18;;;5.30;99.90;;;;;;5056578;28;20191;-80
2022/12/19 07:27:06;;;;;;;1.35;0.98;;;5.30;99.90;;;;;;5054083;28;20222;-78
2022/12/19 07:29:33;;;;;;;6.72;5.10;;;5.30;99.90;;;;;;5053491;28;20265;-79
2022/12/19 07:32:00;;;;;;;6.35;4.15;;;5.40;99.90;;;;;;5052369;28;20210;-78
2022/12/19 07:34:27;;;;;;;4.80;4.40;;;5.30;99.90;;;;;;5052970;28;20294;-78
2022/12/19 07:36:53;;;;;;;4.15;2.65;;;5.40;99.90;;;;;;5039126;28;20769;-78
2022/12/19 07:39:21;;;;;;;10.20;8.85;;;5.50;99.90;;;;;;5055108;28;20193;-79
2022/12/19 07:41:49;;;;;;;9.48;6.35;;;5.50;99.90;;;;;;5056710;28;20210;-79
2022/12/19 07:44:16;;;;;;;9.60;2.88;;;5.50;99.90;;;;;;5054942;28;20200;-78
2022/12/19 07:46:43;;;;;;;6.72;3.90;;;5.50;99.90;;;;;;5051102;28;20197;-77
2022/12/19 07:49:11;;;;;;;8.10;6.25;;;5.50;99.90;;;;;;5047867;28;20187;-79
2022/12/19 07:51:37;;;;;;;6.70;5.90;;;5.50;99.90;;;;;;5050634;28;20311;-77
2022/12/19 07:54:04;;;;;;;8.95;4.32;;;5.60;99.90;;;;;;5046697;28;20203;-76
2022/12/19 07:56:31;;;;;;;11.68;4.60;;;5.60;99.90;;;;;;5053746;28;20213;-78
2022/12/19 07:58:59;;;;;;;1.23;0.80;;;5.70;99.90;;;;;;5056516;28;20195;-80
2022/12/19 08:01:26;;;;;;;13.27;5.93;;;5.70;99.90;;;;;;5055676;28;20289;-78
2022/12/19 08:03:53;;;;;;;12.43;7.25;;;5.70;99.90;;;;;;5053869;28;20262;-75
2022/12/19 08:06:20;;;;;;;3.85;3.35;;;5.70;99.90;;;;;;5051640;28;20226;-79
2022/12/19 08:08:47;;;;;;;6.70;5.38;;;5.70;99.90;;;;;;5054056;28;20214;-80
2022/12/19 08:11:16;;;;;;;6.78;6.05;;;5.70;99.90;;;;;;5050397;28;20301;-75
2022/12/19 08:13:43;;;;;;;5.00;4.65;;;5.80;99.90;;;;;;5047676;28;20201;-77
2022/12/19 08:16:11;;;;;;;1.80;1.70;;;5.80;99.90;;;;;;5051227;28;20215;-78
2022/12/19 08:18:39;;;;;;;15.95;7.03;;;5.80;99.90;;;;;;5050712;28;20741;-78
2022/12/19 08:21:07;;;;;;;4.47;4.13;;;5.90;99.90;;;;;;5046001;28;20211;-78
2022/12/19 08:23:34;;;;;;;9.27;4.25;;;5.90;99.90;;;;;;5052169;28;20541;-78
2022/12/19 08:26:02;;;;;;;2.08;1.98;;;5.90;99.90;;;;;;5041723;28;20278;-77
2022/12/19 08:28:29;;;;;;;2.70;2.38;;;6.00;99.90;;;;;;5047190;28;20563;-77
2022/12/19 08:30:56;;;;;;;11.18;8.27;;;6.00;99.90;;;;;;5045717;28;20217;-78
2022/12/19 08:33:24;;;;;;;10.77;5.50;;;6.00;99.90;;;;;;5053060;28;20201;-74
2022/12/19 08:35:51;;;;;;;3.70;2.83;;;6.00;99.90;;;;;;5053026;28;20627;-76
2022/12/19 08:38:18;;;;;;;4.45;4.05;;;6.00;99.90;;;;;;5052382;28;20702;-77
2022/12/19 08:40:52;;;;;;;1.10;1.00;;;6.10;99.90;;;;;;5047250;28;20215;-78
2022/12/19 08:43:19;;;;;;;5.85;3.05;;;6.00;99.90;;;;;;5051997;28;20187;-78
2022/12/19 08:45:49;;;;;;;3.55;3.28;;;5.90;99.90;;;;;;5045884;28;20193;-78
2022/12/19 08:48:17;;;;;;;7.20;5.13;;;5.90;99.90;;;;;;5047845;28;20616;-77
2022/12/19 08:50:51;;;;;;;4.30;3.83;;;6.00;99.90;;;;;;5044923;28;20258;-79
2022/12/19 08:53:18;;;;;;;16.85;9.77;;;6.00;99.90;;;;;;5048894;28;20189;-77
2022/12/19 08:55:45;;;;;;;5.30;4.70;;;6.00;99.90;;;;;;5049550;28;20585;-79
2022/12/19 08:58:12;;;;;;;2.72;2.53;;;5.90;99.90;;;;;;5037823;28;20187;-79
2022/12/19 09:00:39;;;;;;;7.55;1.98;;;6.00;99.90;;;;;;5048356;28;20198;-78
2022/12/19 09:03:06;;;;;;;3.03;2.00;;;6.00;99.90;;;;;;5045055;28;20255;-78
2022/12/19 09:05:32;;;;;;;15.90;8.68;;;5.90;99.90;;;;;;5047071;28;20720;-77
2022/12/19 09:08:01;;;;;;;8.55;3.58;;;6.00;99.90;;;;;;5049197;28;20727;-77
2022/12/19 09:10:29;;;;;;;10.40;5.55;;;6.00;99.90;;;;;;5050554;28;20213;-77
2022/12/19 09:12:56;;;;;;;2.25;1.63;;;6.00;99.90;;;;;;5043459;28;20274;-78
2022/12/19 09:15:22;;;;;;;4.25;3.63;;;6.00;99.90;;;;;;5047295;28;20644;-79
2022/12/19 09:17:49;;;;;;;4.30;3.90;;;6.00;99.90;;;;;;5050121;28;20221;-78
2022/12/19 09:20:16;;;;;;;3.25;2.95;;;6.00;99.90;;;;;;5045429;28;20623;-79
2022/12/19 09:22:43;;;;;;;5.65;1.73;;;6.10;99.90;;;;;;5049670;28;20295;-79
2022/12/19 09:25:11;;;;;;;5.82;3.03;;;6.10;99.90;;;;;;5049100;28;20193;-78
2022/12/19 09:27:38;;;;;;;5.72;4.13;;;6.10;99.90;;;;;;5049030;28;20189;-78
2022/12/19 09:30:06;;;;;;;7.13;6.50;;;6.10;99.90;;;;;;5045132;28;20205;-77
2022/12/19 09:32:33;;;;;;;8.93;6.63;;;6.20;99.90;;;;;;5049909;28;20744;-77
2022/12/19 09:35:00;;;;;;;4.30;2.65;;;6.10;99.90;;;;;;5044186;28;20610;-79
2022/12/19 09:37:27;;;;;;;10.80;4.75;;;6.20;99.90;;;;;;5049002;28;20214;-79
2022/12/19 09:39:54;;;;;;;12.35;4.35;;;6.20;99.90;;;;;;5043823;28;20229;-77
2022/12/19 09:42:39;;;;;;;7.15;2.40;;;6.20;99.90;;;;;;5045950;28;20221;-79
2022/12/19 09:45:32;;;;;;;7.13;5.88;;;6.30;99.90;;;;;;5042418;28;20669;-78
2022/12/19 09:48:00;;;;;;;7.70;4.93;;;6.30;99.90;;;;;;5041069;28;20270;-79
2022/12/19 09:50:35;;;;;;;10.57;7.80;;;6.30;99.90;;;;;;5042882;28;20651;-79
2022/12/19 09:53:06;;;;;;;7.90;5.63;;;6.30;99.90;;;;;;5050996;28;20212;-78
2022/12/19 09:55:36;;;;;;;6.53;3.60;;;6.40;99.90;;;;;;5050461;28;20183;-77
2022/12/19 09:58:11;;;;;;;8.77;3.30;;;6.40;99.90;;;;;;5043306;28;20214;-77
2022/12/19 10:00:43;;;;;;;4.05;3.30;;;6.50;99.90;;;;;;5051835;28;20667;-77
2022/12/19 10:03:20;;;;;;;8.32;3.33;;;6.50;99.90;;;;;;5052623;28;20285;-79
2022/12/19 10:05:50;;;;;;;3.00;2.70;;;6.50;99.90;;;;;;5045553;28;20206;-76
2022/12/19 10:08:20;;;;;;;8.10;5.88;;;6.60;99.90;;;;;;5033583;28;20661;-77
2022/12/19 10:11:00;;;;;;;3.53;3.22;;;6.60;99.90;;;;;;5055467;28;20304;-78
2022/12/19 10:13:40;;;;;;;9.80;4.18;;;6.60;99.90;;;;;;5050999;28;20997;-80
2022/12/19 10:16:16;;;;;;;14.40;4.93;;;6.70;99.90;;;;;;5049752;28;20190;-78
2022/12/19 10:18:51;;;;;;;4.18;3.00;;;6.70;99.90;;;;;;5053247;28;20550;-80
2022/12/19 10:21:41;;;;;;;7.60;4.72;;;6.70;99.90;;;;;;5053317;28;20221;-80
2022/12/19 10:24:27;;;;;;;6.88;4.40;;;6.70;99.90;;;;;;5030447;28;20217;-80
2022/12/19 10:26:57;;;;;;;5.45;3.88;;;6.70;99.90;;;;;;5033535;28;20199;-80
2022/12/19 10:29:40;;;;;;;4.53;3.17;;;6.70;99.90;;;;;;5033426;28;20206;-78
2022/12/19 10:32:17;;;;;;;5.78;3.53;;;6.70;99.90;;;;;;5037447;28;20761;-78
2022/12/19 10:34:46;;;;;;;3.80;3.22;;;6.70;99.90;;;;;;5051468;28;20265;-77
2022/12/19 10:37:18;;;;;;;4.70;3.72;;;6.80;99.90;;;;;;5051884;28;20214;-80
2022/12/19 10:39:56;;;;;;;6.07;5.47;;;6.90;99.90;;;;;;5059925;28;20198;-79
2022/12/19 10:42:32;;;;;;;14.32;3.28;;;6.90;99.90;;;;;;5053389;28;20237;-80
2022/12/19 10:45:09;;;;;;;3.10;2.85;;;6.90;99.90;;;;;;5052404;28;20196;-80
2022/12/19 10:47:36;;;;;;;7.07;4.45;;;7.00;99.90;;;;;;5053116;28;20185;-79
2022/12/19 10:50:03;;;;;;;8.57;4.20;;;7.00;99.90;;;;;;5053012;28;20289;-79
2022/12/19 10:52:52;;;;;;;1.60;1.50;;;7.10;99.90;;;;;;5052838;28;20222;-79
2022/12/19 10:55:30;;;;;;;3.00;2.45;;;7.10;99.90;;;;;;5052611;28;20275;-79
2022/12/19 10:57:59;;;;;;;4.05;2.55;;;7.10;99.90;;;;;;5053115;28;20242;-78
2022/12/19 11:00:28;;;;;;;2.90;2.70;;;7.10;99.90;;;;;;5045738;28;20202;-79
2022/12/19 11:03:12;;;;;;;7.40;2.58;;;7.20;99.90;;;;;;5052258;28;20197;-78
2022/12/19 11:05:43;;;;;;;1.60;1.45;;;7.20;99.90;;;;;;5047469;28;20610;-80
2022/12/19 11:08:16;;;;;;;2.15;1.95;;;7.20;99.90;;;;;;5052500;28;20214;-79
2022/12/19 11:10:45;;;;;;;7.53;3.65;;;7.20;99.90;;;;;;5050976;28;20214;-78
2022/12/19 11:13:21;;;;;;;2.40;2.30;;;7.30;99.90;;;;;;5052029;28;20217;-78
2022/12/19 11:15:50;;;;;;;2.50;2.30;;;7.30;99.90;;;;;;5051027;28;20293;-80
2022/12/19 11:18:17;;;;;;;8.75;3.42;;;7.40;99.90;;;;;;5052265;28;20211;-80
2022/12/19 11:20:56;;;;;;;2.38;2.25;;;7.40;99.90;;;;;;5051429;28;20321;-80
2022/12/19 11:23:23;;;;;;;3.63;3.05;;;7.30;99.90;;;;;;5052224;28;20199;-80
2022/12/19 11:25:56;;;;;;;3.00;1.98;;;7.30;99.90;;;;;;5050336;28;20277;-79
2022/12/19 11:28:26;;;;;;;3.17;2.97;;;7.40;99.90;;;;;;5051311;28;20703;-80
2022/12/19 11:31:03;;;;;;;9.98;2.78;;;7.40;99.90;;;;;;5042516;28;20215;-79
2022/12/19 11:33:31;;;;;;;9.73;3.47;;;7.50;99.90;;;;;;5046866;28;20210;-79
2022/12/19 11:36:00;;;;;;;8.45;5.30;;;7.50;99.90;;;;;;5050479;28;20191;-79
2022/12/19 11:38:36;;;;;;;1.70;1.60;;;7.50;99.90;;;;;;5051858;28;20615;-80
2022/12/19 11:41:11;;;;;;;3.10;1.85;;;7.50;99.90;;;;;;5047984;28;20695;-80
2022/12/19 11:43:44;;;;;;;0.68;0.68;;;7.50;99.90;;;;;;5042919;28;20356;-80
2022/12/19 11:46:23;;;;;;;2.00;1.90;;;7.60;99.90;;;;;;5039624;28;20659;-78
2022/12/19 11:48:54;;;;;;;8.38;6.75;;;7.60;99.90;;;;;;5051599;28;20700;-78
2022/12/19 11:51:28;;;;;;;6.28;3.90;;;7.60;99.90;;;;;;5051491;28;20226;-79
2022/12/19 11:54:02;;;;;;;5.45;3.28;;;7.70;99.90;;;;;;5050882;28;20179;-76
2022/12/19 11:56:29;;;;;;;2.00;1.90;;;7.80;99.90;;;;;;5043472;28;20186;-79
2022/12/19 11:59:00;;;;;;;1.15;0.98;;;7.80;99.90;;;;;;5054262;28;20302;-78
2022/12/19 12:01:46;;;;;;;2.15;1.30;;;7.80;99.90;;;;;;5057014;28;20293;-78
2022/12/19 12:04:38;;;;;;;3.75;2.00;;;8.00;99.90;;;;;;5070491;28;20280;-80
2022/12/19 12:07:06;;;;;;;2.33;2.15;;;8.00;99.90;;;;;;5044578;28;20734;-80
2022/12/19 12:09:36;;;;;;;4.13;2.60;;;8.00;99.90;;;;;;5055304;28;20241;-80
2022/12/19 12:12:11;;;;;;;3.63;3.42;;;8.00;99.90;;;;;;5056090;28;20723;-79
2022/12/19 12:14:49;;;;;;;2.90;2.20;;;8.10;99.90;;;;;;5054829;28;20208;-79
2022/12/19 12:17:35;;;;;;;5.82;3.10;;;8.10;99.90;;;;;;5056192;28;20558;-79
2022/12/19 12:20:19;;;;;;;4.10;3.20;;;8.20;99.90;;;;;;5054698;28;20587;-79
2022/12/19 12:23:17;;;;;;;2.35;1.85;;;8.20;99.90;;;;;;5057862;28;20210;-80
2022/12/19 12:25:53;;;;;;;5.60;3.08;;;8.30;99.90;;;;;;5055630;28;20190;-79
2022/12/19 12:29:01;;;;;;;3.80;2.08;;;8.30;99.90;;;;;;5054649;28;20331;-80
2022/12/19 12:31:41;;;;;;;0.57;0.57;;;8.40;99.90;;;;;;5051907;28;20206;-78
2022/12/19 12:34:36;;;;;;;2.15;1.67;;;8.50;99.90;;;;;;5047497;28;20234;-80
2022/12/19 12:37:17;;;;;;;2.65;1.30;;;8.60;99.90;;;;;;5036320;28;20278;-81
2022/12/19 12:39:53;;;;;;;0.70;0.63;;;8.60;99.90;;;;;;5044694;28;20278;-80
2022/12/19 12:42:34;;;;;;;3.15;2.95;;;8.70;99.90;;;;;;5059499;28;20552;-80
2022/12/19 12:45:09;;;;;;;1.10;1.10;;;8.70;99.90;;;;;;5059619;28;20185;-80
2022/12/19 12:47:35;;;;;;;1.23;1.13;;;8.70;99.90;;;;;;5061137;28;20600;-77
2022/12/19 12:50:08;;;;;;;0.82;0.70;;;8.70;99.90;;;;;;5059825;28;20710;-79
2022/12/19 12:52:39;;;;;;;5.68;4.25;;;8.80;99.90;;;;;;5062388;28;20222;-78
2022/12/19 12:55:15;;;;;;;4.10;1.85;;;8.80;99.90;;;;;;5062796;28;20179;-80
2022/12/19 12:57:42;;;;;;;0.95;0.95;;;8.90;99.90;;;;;;5060791;28;20635;-80
2022/12/19 13:00:21;;;;;;;2.58;2.35;;;8.90;99.90;;;;;;5062867;28;20606;-79
2022/12/19 13:02:53;;;;;;;7.30;3.30;;;9.00;99.90;;;;;;5071741;28;20666;-78
2022/12/19 13:05:40;;;;;;;5.43;4.57;;;9.10;99.90;;;;;;5061601;28;20471;-80
2022/12/19 13:08:32;;;;;;;1.73;0.90;;;9.00;99.90;;;;;;5057593;28;20417;-80
2022/12/19 13:11:02;;;;;;;2.50;2.30;;;9.20;99.90;;;;;;5065104;28;20301;-79
2022/12/19 13:13:48;;;;;;;2.80;2.38;;;9.20;99.90;;;;;;5063812;28;20285;-76
2022/12/19 13:16:51;;;;;;;1.58;1.48;;;9.30;99.90;;;;;;5062199;28;20183;-80